createdAt,value
2023-01-21T00:01:00.624Z,0.80
2023-01-21T00:03:27.454Z,0.70
2023-01-21T00:05:54.372Z,0.55
2023-01-21T00:08:22.271Z,0.95
2023-01-21T00:10:49.138Z,0.68
2023-01-21T00:13:16.051Z,0.40
2023-01-21T00:15:42.943Z,0.13
2023-01-21T00:18:09.882Z,0.70
2023-01-21T00:20:37.549Z,0.70
2023-01-21T00:23:04.798Z,0.32
2023-01-21T00:25:31.672Z,1.02
2023-01-21T00:28:00.287Z,0.50
2023-01-21T00:30:27.145Z,0.50
2023-01-21T00:32:53.985Z,0.63
2023-01-21T00:35:20.902Z,0.43
2023-01-21T00:37:47.642Z,0.55
2023-01-21T00:40:14.914Z,0.73
2023-01-21T00:42:41.866Z,0.30
2023-01-21T00:45:09.498Z,0.50
2023-01-21T00:47:36.377Z,0.25
2023-01-21T00:50:03.565Z,0.52
2023-01-21T00:52:30.385Z,0.68
2023-01-21T00:54:57.263Z,0.50
2023-01-21T00:57:24.144Z,0.60
2023-01-21T00:59:51.728Z,0.40
2023-01-21T01:02:18.617Z,0.30
2023-01-21T01:04:45.451Z,0.65
2023-01-21T01:07:12.391Z,0.50
2023-01-21T01:09:39.216Z,0.50
2023-01-21T01:12:06.461Z,0.75
2023-01-21T01:14:33.328Z,0.57
2023-01-21T01:17:00.186Z,0.40
2023-01-21T01:19:27.406Z,0.60
2023-01-21T01:21:54.295Z,0.70
2023-01-21T01:24:21.284Z,0.30
2023-01-21T01:26:48.138Z,0.30
2023-01-21T01:29:14.956Z,0.45
2023-01-21T01:31:43.082Z,0.38
2023-01-21T01:34:09.964Z,0.30
2023-01-21T01:36:36.744Z,0.40
2023-01-21T01:39:04.867Z,0.50
2023-01-21T01:41:35.000Z,0.47
2023-01-21T01:44:04.909Z,0.40
2023-01-21T01:46:35.162Z,0.50
2023-01-21T01:49:12.111Z,0.30
2023-01-21T01:51:51.753Z,0.30
2023-01-21T01:54:26.784Z,0.20
2023-01-21T01:56:58.236Z,0.10
2023-01-21T01:59:25.602Z,0.37
2023-01-21T02:01:52.830Z,0.60
2023-01-21T02:04:27.201Z,0.30
2023-01-21T02:06:55.751Z,0.45
2023-01-21T02:09:23.570Z,0.20
2023-01-21T02:11:50.436Z,0.30
2023-01-21T02:14:18.885Z,0.28
2023-01-21T02:17:23.752Z,0.50
2023-01-21T02:20:22.446Z,0.50
2023-01-21T02:23:12.698Z,0.22
2023-01-21T02:26:16.676Z,0.20
2023-01-21T02:29:23.512Z,0.38
2023-01-21T02:31:58.483Z,0.32
2023-01-21T02:35:02.725Z,0.32
2023-01-21T02:37:54.571Z,0.40
2023-01-21T02:40:56.157Z,0.40
2023-01-21T02:43:43.139Z,0.35
2023-01-21T02:46:18.410Z,0.35
2023-01-21T02:49:00.566Z,0.20
2023-01-21T02:51:27.384Z,0.15
2023-01-21T02:53:54.198Z,0.40
2023-01-21T02:56:27.071Z,0.20
2023-01-21T02:59:02.625Z,0.15
2023-01-21T03:01:51.084Z,0.90
2023-01-21T03:04:53.096Z,0.10
2023-01-21T03:07:28.090Z,0.30
2023-01-21T03:10:04.473Z,0.40
2023-01-21T03:12:41.213Z,0.40
2023-01-21T03:15:41.318Z,0.35
2023-01-21T03:18:26.434Z,0.20
2023-01-21T03:21:01.971Z,0.40
2023-01-21T03:23:41.499Z,0.45
2023-01-21T03:26:10.953Z,0.17
2023-01-21T03:28:45.012Z,0.30
2023-01-21T03:31:28.690Z,0.15
2023-01-21T03:34:00.149Z,0.22
2023-01-21T03:36:51.535Z,0.30
2023-01-21T03:39:28.812Z,0.40
2023-01-21T03:41:55.781Z,0.63
2023-01-21T03:44:22.777Z,0.55
2023-01-21T03:47:11.628Z,0.50
2023-01-21T03:49:58.752Z,0.52
2023-01-21T03:52:26.715Z,0.30
2023-01-21T03:54:54.139Z,0.22
2023-01-21T03:57:20.987Z,0.20
2023-01-21T03:59:47.851Z,0.22
2023-01-21T04:02:20.063Z,0.10
2023-01-21T04:04:47.822Z,0.20
2023-01-21T04:07:15.813Z,0.13
2023-01-21T04:09:42.646Z,0.32
2023-01-21T04:12:09.677Z,0.10
2023-01-21T04:14:36.471Z,0.40
2023-01-21T04:17:03.578Z,0.10
2023-01-21T04:19:30.471Z,0.20
2023-01-21T04:21:57.377Z,0.20
2023-01-21T04:24:24.193Z,0.30
2023-01-21T04:26:51.186Z,0.20
2023-01-21T04:29:18.200Z,0.20
2023-01-21T04:31:45.508Z,0.20
2023-01-21T04:34:12.466Z,0.13
2023-01-21T04:36:39.483Z,0.10
2023-01-21T04:39:06.353Z,0.20
2023-01-21T04:41:33.209Z,0.47
2023-01-21T04:44:00.085Z,0.20
2023-01-21T04:46:27.448Z,0.20
2023-01-21T04:48:54.345Z,0.40
2023-01-21T04:51:21.218Z,0.20
2023-01-21T04:53:48.054Z,0.30
2023-01-21T04:56:14.866Z,0.25
2023-01-21T04:58:41.682Z,0.30
2023-01-21T05:01:08.556Z,0.05
2023-01-21T05:03:35.374Z,0.10
2023-01-21T05:06:02.198Z,0.52
2023-01-21T05:08:29.048Z,0.10
2023-01-21T05:10:55.844Z,0.28
2023-01-21T05:13:22.767Z,0.65
2023-01-21T05:15:49.965Z,0.28
2023-01-21T05:18:16.878Z,0.20
2023-01-21T05:20:43.802Z,0.20
2023-01-21T05:23:10.686Z,0.30
2023-01-21T05:25:37.688Z,0.03
2023-01-21T05:28:04.635Z,0.40
2023-01-21T05:30:31.483Z,0.47
2023-01-21T05:32:58.290Z,0.13
2023-01-21T05:35:25.284Z,0.47
2023-01-21T05:37:52.129Z,0.15
2023-01-21T05:40:19.486Z,0.45
2023-01-21T05:42:47.073Z,0.30
2023-01-21T05:45:14.579Z,0.60
2023-01-21T05:47:41.784Z,0.47
2023-01-21T05:50:10.086Z,0.40
2023-01-21T05:52:37.288Z,0.70
2023-01-21T05:55:05.211Z,0.47
2023-01-21T05:57:32.561Z,0.20
2023-01-21T05:59:59.530Z,0.38
2023-01-21T06:02:27.169Z,0.10
2023-01-21T06:04:54.151Z,0.40
2023-01-21T06:07:23.489Z,0.20
2023-01-21T06:09:51.069Z,0.30
2023-01-21T06:12:18.306Z,0.40
2023-01-21T06:14:45.664Z,0.30
2023-01-21T06:19:54.125Z,0.40
2023-01-21T06:22:21.402Z,0.30
2023-01-21T06:24:48.547Z,0.40
2023-01-21T06:27:15.602Z,0.30
2023-01-21T06:29:42.904Z,0.20
2023-01-21T06:32:09.927Z,0.38
2023-01-21T06:34:36.939Z,0.50
2023-01-21T06:37:04.310Z,0.50
2023-01-21T06:39:31.429Z,0.70
2023-01-21T06:41:59.248Z,0.47
2023-01-21T06:44:26.845Z,0.10
2023-01-21T06:47:02.000Z,0.22
2023-01-21T06:52:14.977Z,0.47
2023-01-21T06:54:55.067Z,0.30
2023-01-21T07:00:03.086Z,0.25
2023-01-21T07:02:30.424Z,0.40
2023-01-21T07:04:59.193Z,0.30
2023-01-21T07:07:26.839Z,0.35
2023-01-21T07:09:55.088Z,0.52
2023-01-21T07:12:23.487Z,0.68
2023-01-21T07:14:50.464Z,0.50
2023-01-21T07:17:17.574Z,0.95
2023-01-21T07:19:44.627Z,0.28
2023-01-21T07:22:12.473Z,0.50
2023-01-21T07:24:39.607Z,0.28
2023-01-21T07:27:06.862Z,0.35
2023-01-21T07:29:34.719Z,0.65
2023-01-21T07:34:42.596Z,0.50
2023-01-21T07:37:10.069Z,0.40
2023-01-21T07:39:37.234Z,0.47
2023-01-21T07:42:05.048Z,0.52
2023-01-21T07:44:34.243Z,0.30
2023-01-21T07:47:03.259Z,0.47
2023-01-21T07:49:32.363Z,0.47
2023-01-21T07:52:00.502Z,0.70
2023-01-21T07:54:27.779Z,0.50
2023-01-21T07:56:55.997Z,0.40
2023-01-21T07:59:23.134Z,0.38
2023-01-21T08:01:50.679Z,0.60
2023-01-21T08:04:19.362Z,0.43
2023-01-21T08:09:27.742Z,0.75
2023-01-21T08:11:54.870Z,0.60
2023-01-21T08:14:21.737Z,0.28
2023-01-21T08:16:48.605Z,0.38
2023-01-21T08:19:16.274Z,0.13
2023-01-21T08:21:47.419Z,0.28
2023-01-21T08:24:14.373Z,0.20
2023-01-21T08:26:41.369Z,0.47
2023-01-21T08:29:08.824Z,0.30
2023-01-21T08:31:36.962Z,0.20
2023-01-21T08:36:46.290Z,0.55
2023-01-21T08:39:15.339Z,0.40
2023-01-21T08:41:47.553Z,0.30
2023-01-21T08:44:14.517Z,0.15
2023-01-21T08:49:25.521Z,0.52
2023-01-21T08:51:54.890Z,0.65
2023-01-21T08:57:05.152Z,0.30
2023-01-21T08:59:33.182Z,0.50
2023-01-21T09:02:00.069Z,0.40
2023-01-21T09:04:26.948Z,0.40
2023-01-21T09:06:55.112Z,0.35
2023-01-21T09:09:22.142Z,0.70
2023-01-21T09:11:53.095Z,0.10
2023-01-21T09:14:23.302Z,0.30
2023-01-21T09:16:51.147Z,0.20
2023-01-21T09:19:22.850Z,0.40
2023-01-21T09:21:49.876Z,0.50
2023-01-21T09:24:18.692Z,0.60
2023-01-21T09:26:49.574Z,0.55
2023-01-21T09:31:59.262Z,0.50
2023-01-21T09:34:26.807Z,0.60
2023-01-21T09:36:54.235Z,0.30
2023-01-21T09:39:22.214Z,0.60
2023-01-21T09:41:52.336Z,0.75
2023-01-21T09:44:34.847Z,0.40
2023-01-21T09:50:19.522Z,0.30
2023-01-21T09:52:52.324Z,1.02
2023-01-21T09:55:47.459Z,1.20
2023-01-21T09:58:28.768Z,0.68
2023-01-21T10:01:17.411Z,0.20
2023-01-21T10:04:07.565Z,0.30
2023-01-21T10:09:45.722Z,0.63
2023-01-21T10:12:31.952Z,0.30
2023-01-21T10:15:18.261Z,0.50
2023-01-21T10:18:12.341Z,0.17
2023-01-21T10:20:59.027Z,0.30
2023-01-21T10:23:34.243Z,0.30
2023-01-21T10:26:08.073Z,0.28
2023-01-21T10:28:39.523Z,0.40
2023-01-21T10:31:19.654Z,0.45
2023-01-21T10:33:48.903Z,0.30
2023-01-21T10:36:30.753Z,0.95
2023-01-21T10:42:06.472Z,0.50
2023-01-21T10:44:49.694Z,0.45
2023-01-21T10:47:31.210Z,0.30
2023-01-21T10:56:23.814Z,0.55
2023-01-21T10:59:45.629Z,0.30
2023-01-21T11:11:22.344Z,0.20
2023-01-21T11:13:53.708Z,0.10
2023-01-21T11:16:50.042Z,0.33
2023-01-21T11:19:41.109Z,0.20
2023-01-21T11:31:43.696Z,0.73
2023-01-21T11:37:16.479Z,0.70
2023-01-21T11:40:09.056Z,0.30
2023-01-21T11:43:11.757Z,0.45
2023-01-21T11:45:39.475Z,0.50
2023-01-21T11:48:21.199Z,0.22
2023-01-21T11:50:48.279Z,0.20
2023-01-21T11:53:17.793Z,0.38
2023-01-21T11:55:54.384Z,0.22
2023-01-21T11:58:33.717Z,0.30
2023-01-21T12:01:11.827Z,0.20
2023-01-21T12:09:20.270Z,0.35
2023-01-21T12:12:11.563Z,0.30
2023-01-21T12:14:59.852Z,0.20
2023-01-21T12:17:49.320Z,0.20
2023-01-21T12:20:19.549Z,0.38
2023-01-21T12:23:12.983Z,0.43
2023-01-21T12:25:57.035Z,0.30
2023-01-21T12:28:42.155Z,0.50
2023-01-21T12:35:04.235Z,0.50
2023-01-21T12:37:57.517Z,0.38
2023-01-21T12:40:27.547Z,0.10
2023-01-21T12:43:00.845Z,0.20
2023-01-21T12:45:45.812Z,0.30
2023-01-21T12:48:26.967Z,0.20
2023-01-21T12:51:02.843Z,0.63
2023-01-21T12:53:49.254Z,0.20
2023-01-21T12:56:40.103Z,0.95
2023-01-21T12:59:45.765Z,0.50
2023-01-21T13:03:03.692Z,0.30
2023-01-21T13:05:54.394Z,1.20
2023-01-21T13:08:36.375Z,1.58
2023-01-21T13:11:14.133Z,6.75
2023-01-21T13:13:58.536Z,1.58
2023-01-21T13:16:30.200Z,0.52
2023-01-21T13:18:57.723Z,0.85
2023-01-21T13:21:59.273Z,1.00
2023-01-21T13:24:37.140Z,5.38
2023-01-21T13:27:12.972Z,5.10
2023-01-21T13:29:54.392Z,2.10
2023-01-21T13:33:13.036Z,2.07
2023-01-21T13:35:58.513Z,11.43
2023-01-21T13:38:55.158Z,3.00
2023-01-21T13:41:47.691Z,2.67
2023-01-21T13:45:01.081Z,2.38
2023-01-21T13:51:05.192Z,2.33
2023-01-21T13:54:22.262Z,2.40
2023-01-21T13:57:26.028Z,2.58
2023-01-21T14:00:13.866Z,2.67
2023-01-21T14:02:58.342Z,2.58
2023-01-21T14:05:34.323Z,3.35
2023-01-21T14:08:18.352Z,2.53
2023-01-21T14:11:26.083Z,3.10
2023-01-21T14:17:44.546Z,3.85
2023-01-21T14:20:29.567Z,3.55
2023-01-21T14:23:34.835Z,3.45
2023-01-21T14:26:14.717Z,3.25
2023-01-21T14:29:18.517Z,3.95
2023-01-21T14:31:56.992Z,3.70
2023-01-21T14:34:57.746Z,4.47
2023-01-21T14:37:44.108Z,4.90
2023-01-21T14:40:12.723Z,5.75
2023-01-21T14:42:54.858Z,6.55
2023-01-21T14:45:48.679Z,6.88
2023-01-21T14:51:28.989Z,6.57
2023-01-21T14:54:02.607Z,6.82
2023-01-21T14:56:34.837Z,6.32
2023-01-21T14:59:10.460Z,5.03
2023-01-21T15:04:31.916Z,7.07
2023-01-21T15:07:08.134Z,6.07
2023-01-21T15:09:40.894Z,5.32
2023-01-21T15:15:01.577Z,6.80
2023-01-21T15:18:24.162Z,8.02
2023-01-21T15:23:41.107Z,5.45
2023-01-21T15:26:11.553Z,5.32
2023-01-21T15:29:02.445Z,5.13
2023-01-21T15:31:48.365Z,4.63
2023-01-21T15:39:41.417Z,5.30
2023-01-21T15:45:54.988Z,7.40
2023-01-21T15:52:20.881Z,6.53
2023-01-21T15:55:43.340Z,4.00
2023-01-21T15:59:03.709Z,2.88
2023-01-21T16:08:08.226Z,2.72
2023-01-21T16:10:43.081Z,2.35
2023-01-21T16:19:21.845Z,1.60
2023-01-21T16:24:44.838Z,2.35
2023-01-21T16:27:52.412Z,3.33
2023-01-21T16:36:11.749Z,2.60
2023-01-21T16:42:38.102Z,3.28
2023-01-21T16:45:47.520Z,3.03
2023-01-21T16:48:32.121Z,2.20
2023-01-21T16:51:04.750Z,21.10
2023-01-21T16:53:37.170Z,3.22
2023-01-21T16:56:04.684Z,2.70
2023-01-21T16:58:34.050Z,5.25
2023-01-21T17:04:03.511Z,6.50
2023-01-21T17:06:32.258Z,5.53
2023-01-21T17:09:05.919Z,5.57
2023-01-21T17:11:49.338Z,5.20
2023-01-21T17:14:31.760Z,4.80
2023-01-21T17:17:03.794Z,5.15
2023-01-21T17:19:39.973Z,7.03
2023-01-21T17:25:23.251Z,6.90
2023-01-21T17:30:34.692Z,11.75
2023-01-21T17:33:12.151Z,9.53
2023-01-21T17:36:06.633Z,34.00
2023-01-21T17:38:41.076Z,25.23
2023-01-21T17:41:11.814Z,9.68
2023-01-21T17:46:23.711Z,9.52
2023-01-21T17:48:55.294Z,5.28
2023-01-21T17:51:27.847Z,5.95
2023-01-21T17:56:56.685Z,10.98
2023-01-21T18:05:19.693Z,8.82
2023-01-21T18:10:36.306Z,7.78
2023-01-21T18:22:08.462Z,11.13
2023-01-21T18:24:37.380Z,6.35
2023-01-21T18:27:05.432Z,6.05
2023-01-21T18:29:34.115Z,8.95
2023-01-21T18:32:01.587Z,10.10
2023-01-21T18:34:29.570Z,19.15
2023-01-21T18:36:57.868Z,13.90
2023-01-21T18:39:30.536Z,8.77
2023-01-21T18:42:00.433Z,5.80
2023-01-21T18:44:32.112Z,6.28
2023-01-21T18:52:28.826Z,10.32
2023-01-21T18:54:56.197Z,10.07
2023-01-21T18:57:24.021Z,11.80
2023-01-21T18:59:53.002Z,17.58
2023-01-21T19:05:24.713Z,12.20
2023-01-21T19:07:51.953Z,11.85
2023-01-21T19:10:21.791Z,11.95
2023-01-21T19:12:49.638Z,24.20
2023-01-21T19:18:12.721Z,13.10
2023-01-21T19:20:42.755Z,9.82
2023-01-21T19:23:17.822Z,10.07
2023-01-21T19:28:56.705Z,18.55
2023-01-21T19:31:27.002Z,9.38
2023-01-21T19:34:15.299Z,9.02
2023-01-21T19:36:43.357Z,8.20
2023-01-21T19:39:25.454Z,17.40
2023-01-21T19:42:07.322Z,8.35
2023-01-21T19:44:40.427Z,6.80
2023-01-21T19:50:00.598Z,5.82
2023-01-21T19:52:35.780Z,6.70
2023-01-21T19:55:03.648Z,19.83
2023-01-21T20:00:43.173Z,18.05
2023-01-21T20:03:17.096Z,21.02
2023-01-21T20:05:55.075Z,16.17
2023-01-21T20:11:20.716Z,21.27
2023-01-21T20:16:29.559Z,9.63
2023-01-21T20:19:00.473Z,6.05
2023-01-21T20:21:30.392Z,5.72
2023-01-21T20:23:57.687Z,16.83
2023-01-21T20:29:17.285Z,7.10
2023-01-21T20:31:44.436Z,10.45
2023-01-21T20:34:11.996Z,9.35
2023-01-21T20:36:39.121Z,15.38
2023-01-21T20:39:14.668Z,12.05
2023-01-21T20:41:46.968Z,11.40
2023-01-21T20:44:15.832Z,13.20
2023-01-21T20:46:50.995Z,13.73
2023-01-21T20:52:02.308Z,6.47
2023-01-21T20:54:31.087Z,9.48
2023-01-21T20:56:58.282Z,5.75
2023-01-21T20:59:29.802Z,6.07
2023-01-21T21:02:00.957Z,6.43
2023-01-21T21:04:30.102Z,7.05
2023-01-21T21:07:09.453Z,7.90
2023-01-21T21:09:38.564Z,6.55
2023-01-21T21:14:48.719Z,6.38
2023-01-21T21:17:16.604Z,5.85
2023-01-21T21:19:50.746Z,6.68
2023-01-21T21:22:17.866Z,15.68
2023-01-21T21:24:58.398Z,8.93
2023-01-21T21:30:21.071Z,7.03
2023-01-21T21:33:15.643Z,6.10
2023-01-21T21:35:45.418Z,6.18
2023-01-21T21:38:25.362Z,5.95
2023-01-21T21:40:54.796Z,6.25
2023-01-21T21:43:36.005Z,5.95
2023-01-21T21:49:15.973Z,9.27
2023-01-21T21:51:46.018Z,6.97
2023-01-21T21:54:27.130Z,8.23
2023-01-21T21:57:07.175Z,9.48
2023-01-21T21:59:35.255Z,7.10
2023-01-21T22:04:47.098Z,6.63
2023-01-21T22:07:15.464Z,9.60
2023-01-21T22:09:43.387Z,11.65
2023-01-21T22:12:10.663Z,8.77
2023-01-21T22:14:37.844Z,6.70
2023-01-21T22:17:05.964Z,5.97
2023-01-21T22:19:44.118Z,16.67
2023-01-21T22:22:14.339Z,11.18
2023-01-21T22:39:40.513Z,4.72
2023-01-21T22:42:08.551Z,9.77
2023-01-21T22:44:39.758Z,6.97
2023-01-21T22:47:06.713Z,5.32
2023-01-21T22:49:34.915Z,6.05
2023-01-21T22:52:01.946Z,4.82
2023-01-21T22:54:30.301Z,8.70
2023-01-21T22:56:57.428Z,6.32
2023-01-21T22:59:27.880Z,4.43
2023-01-21T23:01:54.759Z,4.82
2023-01-21T23:04:21.559Z,5.95
2023-01-21T23:06:50.073Z,7.53
2023-01-21T23:09:16.969Z,7.15
2023-01-21T23:11:45.144Z,5.43
2023-01-21T23:14:12.211Z,6.40
2023-01-21T23:16:39.486Z,5.82
2023-01-21T23:19:06.396Z,7.85
2023-01-21T23:21:33.342Z,5.38
2023-01-21T23:24:00.347Z,3.90
2023-01-21T23:26:27.204Z,3.30
2023-01-21T23:28:56.069Z,3.20
2023-01-21T23:31:24.407Z,3.25
2023-01-21T23:33:52.696Z,2.78
2023-01-21T23:36:20.009Z,2.90
2023-01-21T23:38:47.033Z,3.63
2023-01-21T23:41:20.133Z,2.55
2023-01-21T23:43:47.172Z,2.55
2023-01-21T23:46:19.788Z,2.10
2023-01-21T23:48:47.501Z,2.40
2023-01-21T23:51:15.971Z,1.77
2023-01-21T23:53:42.889Z,2.13
2023-01-21T23:56:15.598Z,2.42
2023-01-21T23:58:42.441Z,2.08
